Latest Weather Observations for Emerald

IDQ60801

Issued at 1:51 pm EST Sunday 17 February 2019 (issued every 10 minutes, with the page automatically refreshed every 10 minutes)

About weather observations | Map of weather stations | Latest weather observations for QLD | Other Formats
Station Details ID: 035264 Name: EMERALD AIRPORT Lat: -23.57 Lon: 148.18 Height: 189.4 m
Data from the previous 72 hours. | See also: Recent months at Emerald
Date/Time
EST
Temp
°C
App
Temp
°C
Dew
Point
°C
Rel
Hum
%
Delta-T
°C
Wind Press
QNH
hPa
Press
MSL
hPa
Rain since
9am
mm
Dir  Spd
km/h
Gust
km/h
Spd
kts
Gust
kts
17/01:30pm 34.6 32.1 13.4 28 13.0 WSW 19 22 10 12 1010.7 - 0.0
17/01:00pm 33.7 33.3 14.2 30 12.0 ESE 9 17 5 9 1011.2 - 0.0
17/12:30pm 33.6 32.1 13.1 29 12.4 S 13 28 7 15 1011.9 - 0.0
17/12:00pm 32.0 31.4 14.6 34 10.7 SSE 11 20 6 11 1012.5 1011.3 0.0
17/11:30am 31.2 31.3 14.4 36 10.3 E 7 17 4 9 1013.0 - 0.0
17/11:00am 30.8 30.0 15.2 38 9.7 SE 13 22 7 12 1013.8 - 0.0
17/10:30am 29.8 29.0 15.1 40 9.1 E 13 20 7 11 1014.3 - 0.0
17/10:00am 28.9 27.9 14.7 42 8.7 E 13 20 7 11 1014.7 - 0.0
17/09:30am 28.6 26.5 14.8 43 8.4 E 19 24 10 13 1014.8 - 0.0
17/09:00am 28.0 26.0 15.6 46 7.6 E 20 30 11 16 1015.1 1013.8 0.0
17/08:30am 27.0 25.9 17.2 55 6.2 NE 19 24 10 13 1015.1 - 0.0
17/08:00am 26.2 24.9 17.3 58 5.6 ENE 20 26 11 14 1015.0 - 0.0
17/07:30am 25.3 24.8 19.0 68 4.1 ENE 20 24 11 13 1014.7 - 0.0
17/07:00am 24.1 25.5 19.6 76 2.9 E 11 17 6 9 1014.3 - 0.0
17/06:30am 22.2 23.5 19.4 84 1.8 E 11 11 6 6 1013.8 - 0.0
17/06:00am 22.3 24.4 18.9 81 2.2 ENE 6 7 3 4 1013.5 1012.3 0.0
17/05:30am 22.4 24.3 19.0 81 2.2 ENE 7 9 4 5 1013.3 - 0.0
17/05:00am 22.9 24.8 18.9 78 2.6 NE 7 9 4 5 1013.0 - 0.0
17/04:30am 23.2 25.0 18.7 76 2.9 NE 7 9 4 5 1012.9 - 0.0
17/04:00am 23.6 25.0 18.7 74 3.1 NE 9 13 5 7 1012.7 - 0.0
17/03:30am 23.9 24.6 18.8 73 3.3 NE 13 17 7 9 1012.5 - 0.0
17/03:00am 24.2 24.5 18.8 72 3.5 NE 15 20 8 11 1012.4 1011.2 0.0
17/02:30am 24.5 23.8 18.7 70 3.7 NE 20 26 11 14 1012.2 - 0.0
17/02:00am 24.8 23.9 18.3 67 4.1 NE 20 32 11 17 1012.3 - 0.0
17/01:30am 25.3 24.5 18.5 66 4.3 NE 20 28 11 15 1012.6 - 0.0
17/01:00am 25.7 27.0 20.9 75 3.2 NNE 15 20 8 11 1013.0 - 0.0
17/12:30am 25.9 26.4 21.1 75 3.2 NE 20 28 11 15 1013.1 - 0.0
17/12:00am 26.3 25.8 20.8 71 3.6 NNE 24 32 13 17 1013.3 1012.1 0.0
 
Date/Time
EST
Temp
°C
App
Temp
°C
Dew
Point
°C
Rel
Hum
%
Delta-T
°C
Wind Press
QNH
hPa
Press
MSL
hPa
Rain since
9am
mm
Dir  Spd
km/h
Gust
km/h
Spd
kts
Gust
kts
16/11:30pm 26.9 27.3 20.7 69 4.1 NE 19 26 10 14 1013.1 - 0.0
16/11:00pm 27.6 27.6 19.7 62 5.2 NE 19 26 10 14 1012.8 - 0.0
16/10:30pm 28.7 26.4 15.6 45 8.1 ENE 22 32 12 17 1012.5 - 0.0
16/10:18pm 29.4 24.8 12.3 34 10.1 ENE 28 37 15 20 1012.4 - 0.0
16/10:00pm 29.3 28.3 13.5 38 9.5 ENE 11 13 6 7 1012.1 - 0.0
16/09:30pm 29.5 29.4 14.9 41 9.0 ENE 9 11 5 6 1012.1 - 0.0
16/09:00pm 29.9 29.9 15.2 41 9.1 ENE 9 15 5 8 1011.8 1010.6 0.0
16/08:30pm 30.2 30.7 15.1 40 9.3 E 6 7 3 4 1011.4 - 0.0
16/08:00pm 30.7 30.5 13.5 35 10.4 ESE 7 9 4 5 1011.2 - 0.0
16/07:30pm 31.4 31.0 14.1 35 10.6 ESE 9 11 5 6 1010.6 - 0.0
16/07:00pm 32.3 31.9 14.0 33 11.2 SE 9 11 5 6 1010.3 - 0.0
16/06:30pm 33.9 32.3 12.8 28 12.8 SSE 13 19 7 10 1010.0 - 0.0
16/06:00pm 34.7 31.8 12.4 26 13.5 SSE 19 26 10 14 1009.8 1008.5 0.0
16/05:30pm 34.9 33.4 13.1 27 13.3 S 13 19 7 10 1009.9 - 0.0
16/05:00pm 34.7 33.5 14.0 28 12.8 S 13 20 7 11 1010.1 - 0.0
16/04:30pm 35.1 33.8 14.9 29 12.7 SSE 15 24 8 13 1010.2 - 0.0
16/04:00pm 34.7 34.7 15.1 31 12.3 E 9 22 5 12 1010.5 - 0.0
16/03:30pm 34.5 34.6 15.4 32 12.0 ENE 9 17 5 9 1010.8 - 0.0
16/03:00pm 34.5 34.0 15.9 33 11.8 N 13 20 7 11 1011.3 1010.1 0.0
16/02:30pm 34.2 32.4 16.1 34 11.5 SE 20 26 11 14 1011.9 - 0.0
16/02:00pm 33.8 33.7 17.9 38 10.3 S 15 22 8 12 1012.6 - 0.0
16/01:30pm 33.8 35.4 18.3 39 10.1 SSE 7 17 4 9 1013.2 - 0.0
16/01:00pm 32.9 31.9 17.5 39 9.9 ESE 19 24 10 13 1013.9 - 0.0
16/12:30pm 32.6 33.3 18.0 41 9.5 NE 11 22 6 12 1014.5 - 0.0
16/12:00pm 31.2 31.2 17.1 42 9.0 ESE 13 19 7 10 1015.1 1013.8 0.0
16/11:30am 31.6 32.7 17.9 44 8.9 E 9 17 5 9 1015.6 - 0.0
16/11:00am 30.7 30.9 17.7 45 8.4 SE 13 20 7 11 1016.2 - 0.0
16/10:30am 30.3 30.1 17.7 46 8.1 E 15 28 8 15 1016.4 - 0.0
16/10:00am 29.7 30.1 18.2 50 7.4 E 13 20 7 11 1016.7 - 0.0
16/09:30am 29.4 29.6 18.5 52 7.1 NE 15 26 8 14 1016.9 - 0.0
16/09:00am 28.1 28.1 18.2 55 6.3 ENE 15 20 8 11 1017.0 1015.8 4.4
16/08:30am 27.0 26.7 18.3 59 5.6 NE 17 22 9 12 1017.1 - 4.2
16/08:00am 26.5 26.3 18.6 62 5.1 NNE 17 24 9 13 1016.7 - 4.2
16/07:30am 26.1 26.0 19.5 67 4.3 NE 19 28 10 15 1016.5 - 4.2
16/07:00am 25.6 27.5 21.3 77 2.9 NNE 13 17 7 9 1016.3 - 4.2
16/06:30am 24.7 27.9 21.6 83 2.1 N 7 9 4 5 1016.0 - 4.2
16/06:00am 24.6 27.7 21.5 83 2.1 NNE 7 9 4 5 1015.7 1014.4 4.2
16/05:30am 24.7 27.9 21.6 83 2.1 N 7 11 4 6 1015.4 - 4.2
16/05:00am 24.9 28.1 21.6 82 2.2 N 7 9 4 5 1015.2 - 4.2
16/04:30am 24.8 27.8 21.3 81 2.3 NE 7 9 4 5 1015.2 - 4.2
16/04:00am 24.7 27.3 21.2 81 2.3 NNE 9 13 5 7 1014.7 - 4.2
16/03:30am 24.6 27.3 21.3 82 2.2 NE 9 13 5 7 1014.6 - 4.2
16/03:00am 24.9 27.1 21.2 80 2.5 NE 11 15 6 8 1014.4 1013.1 4.2
16/02:30am 25.1 26.6 21.2 79 2.6 NE 15 19 8 10 1014.2 - 4.2
16/02:00am 25.3 26.0 21.2 78 2.7 NE 19 26 10 14 1014.1 - 4.2
16/01:30am 25.5 25.9 21.0 76 3.0 NE 20 28 11 15 1014.2 - 4.2
16/01:00am 25.7 26.3 21.1 76 3.1 NE 19 26 10 14 1014.5 - 4.2
16/12:30am 26.0 27.2 21.4 76 3.1 NE 17 26 9 14 1014.8 - 4.2
16/12:00am 26.3 27.3 21.7 76 3.1 NE 19 28 10 15 1014.8 1013.5 4.2
 
Date/Time
EST
Temp
°C
App
Temp
°C
Dew
Point
°C
Rel
Hum
%
Delta-T
°C
Wind Press
QNH
hPa
Press
MSL
hPa
Rain since
9am
mm
Dir  Spd
km/h
Gust
km/h
Spd
kts
Gust
kts
15/11:30pm 26.7 29.2 23.2 81 2.4 E 15 20 8 11 1014.9 - 4.2
15/11:00pm 26.5 29.4 23.2 82 2.3 ENE 13 17 7 9 1014.9 - 4.2
15/10:30pm 26.7 30.4 23.2 81 2.4 ENE 9 13 5 7 1014.6 - 4.2
15/10:24pm 26.4 29.9 22.9 81 2.4 E 9 15 5 8 1014.6 - 4.2
15/10:00pm 26.5 27.8 22.3 78 2.8 E 19 26 10 14 1014.6 - 3.4
15/09:46pm 27.6 29.8 20.4 65 4.8 ESE 9 15 5 8 1014.6 - 0.8
15/09:30pm 28.3 29.3 19.5 59 5.8 S 13 17 7 9 1014.5 - 0.0
15/09:00pm 29.1 29.1 19.7 57 6.2 SSW 19 24 10 13 1014.4 1013.1 0.0
15/08:30pm 29.7 30.8 18.8 52 7.1 NW 11 15 6 8 1013.9 - 0.0
15/08:00pm 29.7 29.6 18.8 52 7.1 ENE 17 20 9 11 1013.5 - 0.0
15/07:30pm 30.5 29.5 16.5 43 8.8 ENE 17 24 9 13 1012.9 - 0.0
15/07:00pm 30.8 29.5 14.8 37 9.9 NE 15 19 8 10 1012.1 - 0.0
15/06:30pm 31.6 28.9 17.5 43 9.1 ENE 28 37 15 20 1011.4 - 0.0
15/06:24pm 31.6 28.5 17.5 43 9.1 E 30 37 16 20 1011.3 - 0.0
15/06:00pm 31.2 26.3 16.4 41 9.4 ESE 37 50 20 27 1011.6 1010.4 0.0
15/05:46pm 32.5 27.9 17.2 40 9.8 SE 37 46 20 25 1011.5 - 0.0
15/05:30pm 35.8 31.9 15.5 29 12.9 E 30 37 16 20 1010.9 - 0.0
15/05:04pm 36.3 32.8 15.4 28 13.2 ENE 28 46 15 25 1010.5 - 0.0
15/05:00pm 36.4 33.8 16.0 29 13.0 NE 24 35 13 19 1010.6 - 0.0
15/04:30pm 36.7 35.4 16.8 30 12.9 NE 19 32 10 17 1010.6 - 0.0
15/04:00pm 36.2 34.6 15.9 30 12.9 E 19 28 10 15 1010.8 - 0.0
15/03:30pm 36.4 33.7 16.5 30 12.8 E 26 32 14 17 1010.9 - 0.0
15/03:00pm 36.7 33.9 16.3 30 13.1 ENE 26 39 14 21 1011.3 1010.1 0.0
15/02:30pm 35.8 34.6 17.0 32 12.2 ENE 19 26 10 14 1011.7 - 0.0
15/02:00pm 35.6 33.7 16.8 32 12.1 NE 22 30 12 16 1012.3 - 0.0
15/01:30pm 35.6 34.7 18.2 35 11.4 NE 20 30 11 16 1012.7 - 0.0
15/01:00pm 34.6 33.3 18.2 37 10.7 E 22 33 12 18 1013.2 - 0.0
15/12:30pm 33.5 33.3 18.4 40 9.9 E 17 26 9 14 1013.8 - 0.0
15/12:00pm 33.4 32.3 18.7 41 9.7 NE 22 32 12 17 1014.3 1013.0 0.0
15/11:30am 33.7 34.0 19.7 43 9.3 E 17 30 9 16 1014.8 - 0.0
15/11:00am 32.5 31.9 20.4 49 8.1 ENE 24 33 13 18 1015.2 - 0.0
15/10:30am 32.0 32.5 20.9 52 7.5 ENE 19 35 10 19 1015.6 - 0.0
15/10:00am 31.2 31.7 21.1 55 6.8 ENE 20 30 11 16 1015.7 - 0.0
15/09:30am 31.0 31.1 21.8 58 6.3 ENE 24 35 13 19 1015.6 - 0.0
15/09:00am 30.2 29.8 21.6 60 5.8 NE 26 37 14 20 1015.7 1014.4 0.0
15/08:30am 29.5 29.9 21.7 63 5.3 ENE 22 28 12 15 1015.5 - 0.0
15/08:00am 28.2 29.2 22.2 70 4.1 ENE 20 28 11 15 1015.4 - 0.0
15/07:30am 27.7 28.4 22.2 72 3.7 ENE 22 28 12 15 1015.3 - 0.0
15/07:00am 27.2 28.4 22.2 74 3.4 ENE 19 24 10 13 1015.2 - 0.0
15/06:30am 26.8 28.9 22.4 77 3.0 ENE 15 20 8 11 1015.0 - 0.0
15/06:00am 26.9 29.3 22.3 76 3.1 ENE 13 19 7 10 1014.6 1013.3 0.0
15/05:30am 27.0 29.0 22.2 75 3.2 NE 15 20 8 11 1014.1 - 0.0
15/05:00am 27.1 29.0 22.1 74 3.4 NE 15 20 8 11 1013.9 - 0.0
15/04:30am 27.1 29.0 22.1 74 3.4 ENE 15 20 8 11 1013.4 - 0.0
15/04:00am 27.1 29.3 21.8 73 3.6 NE 13 19 7 10 1013.3 - 0.0
15/03:30am 27.1 28.5 21.8 73 3.6 NE 17 24 9 13 1013.2 - 0.0
15/03:00am 27.1 28.0 21.6 72 3.7 NE 19 28 10 15 1013.0 1011.8 0.0
15/02:30am 27.3 28.2 21.6 71 3.8 ENE 19 22 10 12 1013.3 - 0.0
15/02:00am 27.2 28.4 21.5 71 3.8 NE 17 24 9 13 1013.3 - 0.0
15/01:30am 27.1 27.1 21.6 72 3.7 NE 24 35 13 19 1012.8 - 0.0
15/01:00am 27.3 26.3 21.3 69 4.0 NE 28 35 15 19 1012.4 - 0.0
15/12:30am 27.6 26.7 20.7 66 4.6 NE 26 41 14 22 1012.3 - 0.0
15/12:00am 28.0 27.4 20.6 64 4.9 NE 24 35 13 19 1012.2 1011.0 0.0
 
Date/Time
EST
Temp
°C
App
Temp
°C
Dew
Point
°C
Rel
Hum
%
Delta-T
°C
Wind Press
QNH
hPa
Press
MSL
hPa
Rain since
9am
mm
Dir  Spd
km/h
Gust
km/h
Spd
kts
Gust
kts
14/11:30pm 28.4 27.4 20.4 62 5.3 NE 26 37 14 20 1012.0 - 0.0
14/11:00pm 28.9 26.4 20.1 59 5.8 NE 33 48 18 26 1011.9 - 0.0
14/10:41pm 29.3 27.5 19.6 56 6.4 ENE 28 46 15 25 1011.7 - 0.0
14/10:30pm 29.6 27.8 19.6 55 6.6 ENE 28 44 15 24 1011.7 - 0.0
14/10:00pm 29.9 27.7 18.7 51 7.3 ENE 28 37 15 20 1011.4 - 0.0
14/09:30pm 30.7 28.3 19.1 50 7.6 ENE 30 44 16 24 1010.8 - 0.0
14/09:00pm 31.4 27.7 20.0 50 7.6 ENE 39 52 21 28 1010.2 1008.9 0.0
14/08:33pm 33.4 30.1 18.0 40 10.0 ENE 32 50 17 27 1009.6 - 0.0
14/08:30pm 32.8 28.2 8.3 22 13.8 E 22 39 12 21 1009.6 - 0.0
14/08:00pm 34.2 30.2 6.5 18 15.2 ESE 17 19 9 10 1009.0 - 0.0
14/07:30pm 35.0 31.7 6.3 17 15.8 SSE 13 17 7 9 1008.5 - 0.0
14/07:00pm 36.1 32.8 6.3 16 16.5 SE 13 15 7 8 1007.9 - 0.0
14/06:30pm 37.7 34.2 5.6 14 17.7 SE 13 19 7 10 1007.5 - 0.0
14/06:00pm 39.0 36.7 5.6 13 18.6 SE 7 9 4 5 1007.0 1005.8 0.0
14/05:30pm 39.6 35.5 6.1 13 18.8 S 17 35 9 19 1006.7 - 0.0
14/05:00pm 39.5 35.0 6.0 13 18.8 SE 19 24 10 13 1006.6 - 0.0
14/04:30pm 39.8 36.2 5.1 12 19.2 SW 13 24 7 13 1006.4 - 0.0
14/04:00pm 39.3 36.3 5.8 13 18.7 SSE 11 20 6 11 1006.5 - 0.0
14/03:30pm 39.9 36.1 7.4 14 18.6 SSE 17 24 9 13 1006.6 - 0.0
14/03:00pm 39.4 37.0 7.0 14 18.4 SW 9 20 5 11 1006.9 1005.7 0.0
14/02:30pm 39.3 36.9 6.9 14 18.4 ESE 9 17 5 9 1007.2 - 0.0
14/02:00pm 39.3 35.6 7.9 15 18.1 SE 17 24 9 13 1007.6 - 0.0

Other Formats:

Comma delimited format used in spreadsheet applications
http://www.bom.gov.au/fwo/IDQ60801/IDQ60801.94363.axf

JavaScript Object Notation format (JSON) in row-major order
http://www.bom.gov.au/fwo/IDQ60801/IDQ60801.94363.json